createdAt,value
2023-03-06T00:00:59.051Z,3.10
2023-03-06T00:03:28.317Z,5.00
2023-03-06T00:05:59.144Z,4.50
2023-03-06T00:08:28.472Z,4.50
2023-03-06T00:11:01.018Z,4.10
2023-03-06T00:13:35.355Z,7.00
2023-03-06T00:16:07.269Z,5.20
2023-03-06T00:18:35.894Z,6.10
2023-03-06T00:21:11.334Z,6.60
2023-03-06T00:23:41.556Z,7.20
2023-03-06T00:26:10.257Z,6.20
2023-03-06T00:28:39.843Z,6.40
2023-03-06T00:31:15.622Z,4.00
2023-03-06T00:33:47.659Z,7.70
2023-03-06T00:36:16.662Z,5.30
2023-03-06T00:38:45.342Z,6.80
2023-03-06T00:41:13.852Z,5.60
2023-03-06T00:43:42.700Z,5.90
2023-03-06T00:46:11.330Z,7.60
2023-03-06T00:48:41.204Z,5.80
2023-03-06T00:51:13.481Z,6.00
2023-03-06T00:53:43.795Z,9.40
2023-03-06T00:56:12.273Z,7.30
2023-03-06T00:58:41.582Z,5.60
2023-03-06T01:01:10.076Z,7.40
2023-03-06T01:03:40.481Z,5.70
2023-03-06T01:06:10.292Z,8.90
2023-03-06T01:08:39.284Z,9.60
2023-03-06T01:11:08.830Z,6.20
2023-03-06T01:13:37.468Z,8.70
2023-03-06T01:16:09.190Z,7.00
2023-03-06T01:18:38.357Z,5.20
2023-03-06T01:21:06.801Z,6.90
2023-03-06T01:23:36.827Z,6.80
2023-03-06T01:26:05.946Z,7.00
2023-03-06T01:28:35.420Z,5.30
2023-03-06T01:31:04.420Z,7.30
2023-03-06T01:33:34.493Z,5.00
2023-03-06T01:36:08.405Z,6.90
2023-03-06T01:38:37.842Z,5.80
2023-03-06T01:41:06.495Z,9.00
2023-03-06T01:43:36.234Z,6.00
2023-03-06T01:46:19.783Z,8.50
2023-03-06T01:51:16.736Z,6.80
2023-03-06T01:53:45.317Z,7.80
2023-03-06T01:56:14.310Z,6.70
2023-03-06T01:58:44.057Z,10.00
2023-03-06T02:01:13.483Z,8.90
2023-03-06T02:03:42.107Z,10.70
2023-03-06T02:06:13.282Z,7.00
2023-03-06T02:08:50.246Z,7.20
2023-03-06T02:11:26.128Z,6.60
2023-03-06T02:13:55.719Z,12.20
2023-03-06T02:16:29.229Z,8.60
2023-03-06T02:19:02.956Z,9.90
2023-03-06T02:21:36.507Z,8.00
2023-03-06T02:24:11.880Z,7.90
2023-03-06T02:26:41.034Z,7.60
2023-03-06T02:29:12.310Z,7.40
2023-03-06T02:31:42.516Z,8.10
2023-03-06T02:34:17.038Z,7.60
2023-03-06T02:36:49.190Z,10.10
2023-03-06T02:39:19.001Z,7.20
2023-03-06T02:41:48.615Z,10.70
2023-03-06T02:44:17.617Z,8.00
2023-03-06T02:46:46.128Z,9.00
2023-03-06T02:49:14.764Z,6.00
2023-03-06T02:51:44.000Z,9.40
2023-03-06T02:54:13.590Z,10.80
2023-03-06T02:56:45.339Z,8.30
2023-03-06T02:59:14.110Z,9.40
2023-03-06T03:01:47.952Z,8.70
2023-03-06T03:04:16.823Z,7.00
2023-03-06T03:06:45.597Z,7.70
2023-03-06T03:09:14.294Z,7.50
2023-03-06T03:11:44.612Z,6.30
2023-03-06T03:14:13.571Z,8.10
2023-03-06T03:16:42.086Z,7.00
2023-03-06T03:19:10.761Z,11.90
2023-03-06T03:21:40.984Z,7.70
2023-03-06T03:24:09.575Z,6.40
2023-03-06T03:26:38.160Z,6.50
2023-03-06T03:29:11.005Z,7.80
2023-03-06T03:31:39.630Z,2.90
2023-03-06T03:34:08.931Z,6.80
2023-03-06T03:36:40.930Z,7.10
2023-03-06T03:39:12.143Z,8.30
2023-03-06T03:41:40.711Z,5.90
2023-03-06T03:44:10.529Z,8.80
2023-03-06T03:46:41.716Z,7.40
2023-03-06T03:49:14.969Z,5.20
2023-03-06T03:51:44.362Z,6.30
2023-03-06T03:54:13.083Z,7.60
2023-03-06T03:56:44.727Z,6.50
2023-03-06T04:02:21.137Z,6.30
2023-03-06T04:04:55.072Z,5.60
2023-03-06T04:07:22.766Z,6.90
2023-03-06T04:09:50.151Z,3.80
2023-03-06T04:12:18.604Z,5.60
2023-03-06T04:14:47.076Z,6.30
2023-03-06T04:17:14.548Z,4.50
2023-03-06T04:19:41.691Z,5.90
2023-03-06T04:22:08.793Z,2.90
2023-03-06T04:24:37.421Z,4.60
2023-03-06T04:27:08.150Z,6.80
2023-03-06T04:29:35.838Z,5.00
2023-03-06T04:32:03.270Z,4.00
2023-03-06T04:34:30.521Z,6.80
2023-03-06T04:37:02.298Z,5.60
2023-03-06T04:39:30.144Z,4.40
2023-03-06T04:41:57.540Z,8.40
2023-03-06T04:44:25.783Z,8.10
2023-03-06T04:46:53.236Z,4.80
2023-03-06T04:49:20.403Z,5.30
2023-03-06T04:51:47.374Z,4.80
2023-03-06T04:54:14.380Z,9.70
2023-03-06T04:56:41.525Z,3.60
2023-03-06T04:59:10.106Z,4.50
2023-03-06T05:01:37.567Z,5.20
2023-03-06T05:04:05.531Z,7.50
2023-03-06T05:06:33.330Z,3.30
2023-03-06T05:09:00.445Z,6.30
2023-03-06T05:11:27.619Z,5.40
2023-03-06T05:13:55.966Z,5.20
2023-03-06T05:16:23.038Z,4.40
2023-03-06T05:18:50.739Z,4.20
2023-03-06T05:21:17.950Z,5.00
2023-03-06T05:23:45.030Z,4.10
2023-03-06T05:26:13.066Z,2.30
2023-03-06T05:28:40.297Z,6.50
2023-03-06T05:31:08.816Z,3.80
2023-03-06T05:33:36.027Z,2.60
2023-03-06T05:36:04.202Z,4.80
2023-03-06T05:38:31.870Z,6.40
2023-03-06T05:40:59.014Z,4.50
2023-03-06T05:43:26.223Z,5.50
2023-03-06T05:46:01.627Z,3.40
2023-03-06T05:48:29.074Z,3.50
2023-03-06T05:50:57.659Z,5.90
2023-03-06T05:53:26.455Z,2.90
2023-03-06T05:56:05.029Z,4.00
2023-03-06T05:58:33.535Z,6.40
2023-03-06T06:01:00.812Z,4.90
2023-03-06T06:03:27.985Z,4.10
2023-03-06T06:05:55.289Z,5.50
2023-03-06T06:08:22.339Z,4.90
2023-03-06T06:10:52.192Z,4.80
2023-03-06T06:13:23.909Z,3.60
2023-03-06T06:15:57.876Z,4.70
2023-03-06T06:18:25.109Z,5.60
2023-03-06T06:20:53.435Z,6.20
2023-03-06T06:23:21.727Z,5.50
2023-03-06T06:25:48.773Z,6.50
2023-03-06T06:28:16.281Z,3.00
2023-03-06T06:30:44.028Z,5.10
2023-03-06T06:33:11.761Z,5.70
2023-03-06T06:35:38.827Z,3.90
2023-03-06T06:38:07.685Z,3.20
2023-03-06T06:40:35.483Z,3.10
2023-03-06T06:43:02.807Z,4.60
2023-03-06T06:45:30.572Z,5.60
2023-03-06T06:47:57.688Z,5.40
2023-03-06T06:50:24.790Z,6.60
2023-03-06T06:52:52.251Z,5.20
2023-03-06T06:55:21.318Z,3.20
2023-03-06T06:57:48.478Z,3.90
2023-03-06T07:00:17.480Z,5.50
2023-03-06T07:02:48.709Z,3.60
2023-03-06T07:05:15.916Z,4.20
2023-03-06T07:07:44.448Z,3.40
2023-03-06T07:10:13.746Z,4.50
2023-03-06T07:12:45.294Z,3.80
2023-03-06T07:15:14.611Z,3.70
2023-03-06T07:17:42.252Z,5.40
2023-03-06T07:20:13.440Z,4.60
2023-03-06T07:22:50.398Z,4.30
2023-03-06T07:25:19.080Z,7.40
2023-03-06T07:27:52.762Z,3.70
2023-03-06T07:30:22.594Z,4.50
2023-03-06T07:32:53.526Z,3.30
2023-03-06T07:35:21.081Z,5.00
2023-03-06T07:37:48.359Z,2.70
2023-03-06T07:40:15.892Z,5.20
2023-03-06T07:42:43.039Z,5.60
2023-03-06T07:45:12.765Z,6.80
2023-03-06T07:47:40.729Z,5.80
2023-03-06T07:50:10.445Z,4.20
2023-03-06T07:52:39.150Z,2.60
2023-03-06T07:55:07.595Z,5.80
2023-03-06T07:57:36.183Z,5.60
2023-03-06T08:00:05.232Z,3.90
2023-03-06T08:02:40.753Z,4.50
2023-03-06T08:05:09.305Z,4.50
2023-03-06T08:07:36.976Z,5.40
2023-03-06T08:10:05.137Z,6.40
2023-03-06T08:12:32.308Z,3.60
2023-03-06T08:14:59.430Z,4.60
2023-03-06T08:17:32.011Z,4.50
2023-03-06T08:19:59.069Z,4.50
2023-03-06T08:22:26.118Z,4.50
2023-03-06T08:24:55.920Z,3.50
2023-03-06T08:27:23.470Z,1.60
2023-03-06T08:29:51.746Z,4.70
2023-03-06T08:32:19.005Z,5.20
2023-03-06T08:34:46.253Z,3.70
2023-03-06T08:37:16.910Z,3.20
2023-03-06T08:39:45.135Z,6.30
2023-03-06T08:42:12.414Z,3.70
2023-03-06T08:44:39.795Z,5.50
2023-03-06T08:47:07.130Z,4.60
2023-03-06T08:49:35.594Z,5.00
2023-03-06T08:52:03.166Z,5.80
2023-03-06T08:54:33.990Z,3.00
2023-03-06T08:57:01.528Z,4.50
2023-03-06T08:59:28.905Z,5.20
2023-03-06T09:01:56.151Z,4.90
2023-03-06T09:04:37.440Z,4.70
2023-03-06T09:07:05.207Z,4.80
2023-03-06T09:09:32.560Z,3.60
2023-03-06T09:12:01.347Z,4.50
2023-03-06T09:14:28.734Z,4.40
2023-03-06T09:16:56.126Z,5.90
2023-03-06T09:19:23.438Z,4.90
2023-03-06T09:21:51.268Z,5.30
2023-03-06T09:24:21.259Z,3.40
2023-03-06T09:26:50.489Z,3.30
2023-03-06T09:29:18.679Z,4.50
2023-03-06T09:31:47.887Z,3.00
2023-03-06T09:34:15.119Z,4.40
2023-03-06T09:36:55.939Z,3.70
2023-03-06T09:39:25.408Z,2.90
2023-03-06T09:41:52.454Z,5.30
2023-03-06T09:44:25.521Z,2.30
2023-03-06T09:47:17.591Z,7.00
2023-03-06T09:50:13.594Z,3.40
2023-03-06T09:52:43.717Z,4.60
2023-03-06T09:55:15.080Z,1.80
2023-03-06T09:57:44.872Z,4.80
2023-03-06T10:00:16.408Z,4.00
2023-03-06T10:02:50.065Z,3.70
2023-03-06T10:05:28.832Z,3.40
2023-03-06T10:08:11.032Z,4.80
2023-03-06T10:11:01.639Z,3.20
2023-03-06T10:13:49.972Z,3.60
2023-03-06T10:16:30.853Z,3.80
2023-03-06T10:19:03.490Z,3.00
2023-03-06T10:21:34.161Z,7.10
2023-03-06T10:24:25.101Z,4.10
2023-03-06T10:26:58.173Z,3.50
2023-03-06T10:29:56.416Z,3.30
2023-03-06T10:32:46.185Z,5.30
2023-03-06T10:35:21.238Z,6.80
2023-03-06T10:40:17.975Z,5.10
2023-03-06T10:42:45.764Z,2.90
2023-03-06T10:45:16.642Z,2.00
2023-03-06T10:47:44.482Z,5.40
2023-03-06T10:50:26.014Z,2.20
2023-03-06T10:53:01.744Z,3.10
2023-03-06T10:55:34.597Z,4.80
2023-03-06T10:58:28.888Z,4.30
2023-03-06T11:01:07.713Z,4.20
2023-03-06T11:03:36.109Z,4.50
2023-03-06T11:06:13.487Z,6.60
2023-03-06T11:08:43.741Z,3.60
2023-03-06T11:11:18.510Z,4.40
2023-03-06T11:13:58.162Z,6.80
2023-03-06T11:16:32.498Z,4.10
2023-03-06T11:19:06.606Z,3.80
2023-03-06T11:21:36.028Z,4.00
2023-03-06T11:24:08.183Z,6.60
2023-03-06T11:26:40.639Z,7.00
2023-03-06T11:29:38.531Z,3.20
2023-03-06T11:32:19.800Z,3.90
2023-03-06T11:35:15.647Z,4.50
2023-03-06T11:37:53.536Z,5.30
2023-03-06T11:40:31.534Z,3.30
2023-03-06T11:43:04.724Z,4.10
2023-03-06T11:45:43.719Z,5.80
2023-03-06T11:48:14.064Z,4.30
2023-03-06T11:50:48.934Z,5.70
2023-03-06T11:53:27.811Z,5.10
2023-03-06T11:56:31.818Z,6.10
2023-03-06T11:59:24.341Z,5.50
2023-03-06T12:02:23.314Z,5.70
2023-03-06T12:05:09.481Z,7.70
2023-03-06T12:08:16.384Z,7.00
2023-03-06T12:11:22.825Z,4.90
2023-03-06T12:14:11.770Z,9.40
2023-03-06T12:16:45.627Z,5.80
2023-03-06T12:22:36.306Z,6.40
2023-03-06T12:25:06.539Z,6.20
2023-03-06T12:27:49.341Z,6.10
2023-03-06T12:30:38.204Z,6.80
2023-03-06T12:33:31.696Z,9.40
2023-03-06T12:36:08.258Z,7.00
2023-03-06T12:38:55.190Z,6.80
2023-03-06T12:41:24.046Z,8.00
2023-03-06T12:43:54.363Z,8.00
2023-03-06T12:46:24.703Z,7.40
2023-03-06T12:49:01.933Z,6.30
2023-03-06T12:51:29.121Z,8.30
2023-03-06T12:53:57.092Z,7.40
2023-03-06T12:56:23.948Z,5.90
2023-03-06T12:58:55.802Z,7.30
2023-03-06T13:02:13.931Z,4.90
2023-03-06T13:05:03.107Z,7.10
2023-03-06T13:07:36.912Z,7.00
2023-03-06T13:10:27.880Z,5.10
2023-03-06T13:13:04.728Z,7.60
2023-03-06T13:15:48.944Z,7.10
2023-03-06T13:18:22.453Z,6.40
2023-03-06T13:20:54.830Z,4.70
2023-03-06T13:23:34.982Z,6.80
2023-03-06T13:26:24.552Z,6.30
2023-03-06T13:28:53.546Z,5.90
2023-03-06T13:31:33.257Z,7.50
2023-03-06T13:34:09.060Z,7.60
2023-03-06T13:36:39.482Z,7.60
2023-03-06T13:39:11.134Z,5.90
2023-03-06T13:41:42.363Z,4.90
2023-03-06T13:44:25.194Z,7.00
2023-03-06T13:46:59.652Z,3.20
2023-03-06T13:49:27.613Z,6.90
2023-03-06T13:51:54.957Z,7.70
2023-03-06T13:54:29.055Z,6.80
2023-03-06T13:57:22.093Z,3.80
2023-03-06T13:59:59.599Z,3.50
2023-03-06T14:02:54.543Z,6.40
2023-03-06T14:05:22.361Z,8.30
2023-03-06T14:08:25.630Z,6.30
2023-03-06T14:11:08.250Z,5.60
2023-03-06T14:13:47.565Z,7.10
2023-03-06T14:16:37.578Z,7.90
2023-03-06T14:19:16.095Z,4.50
2023-03-06T14:21:55.234Z,5.50
2023-03-06T14:24:34.872Z,6.90
2023-03-06T14:27:02.322Z,7.40
2023-03-06T14:29:30.326Z,6.40
2023-03-06T14:31:58.766Z,5.80
2023-03-06T14:34:28.080Z,7.70
2023-03-06T14:37:01.094Z,4.00
2023-03-06T14:39:41.964Z,8.40
2023-03-06T14:42:17.601Z,2.80
2023-03-06T14:44:45.968Z,7.60
2023-03-06T14:47:29.298Z,9.30
2023-03-06T14:50:18.972Z,7.30
2023-03-06T14:52:45.911Z,4.70
2023-03-06T14:55:21.045Z,6.40
2023-03-06T14:58:11.568Z,5.20
2023-03-06T15:00:41.351Z,4.20
2023-03-06T15:03:24.065Z,4.80
2023-03-06T15:05:51.322Z,6.30
2023-03-06T15:08:24.926Z,7.90
2023-03-06T15:11:00.990Z,4.90
2023-03-06T15:13:32.440Z,8.30
2023-03-06T15:16:00.850Z,6.30
2023-03-06T15:18:38.428Z,6.90
2023-03-06T15:21:20.019Z,6.40
2023-03-06T15:23:48.466Z,6.50
2023-03-06T15:26:28.049Z,7.20
2023-03-06T15:29:08.312Z,4.90
2023-03-06T15:31:38.515Z,4.10
2023-03-06T15:34:06.040Z,7.40
2023-03-06T15:36:34.641Z,1.70
2023-03-06T15:39:01.918Z,3.60
2023-03-06T15:41:35.350Z,6.90
2023-03-06T15:44:12.675Z,4.70
2023-03-06T15:46:40.427Z,3.30
2023-03-06T15:49:16.795Z,3.40
2023-03-06T15:51:44.149Z,5.40
2023-03-06T15:54:12.654Z,3.90
2023-03-06T15:56:41.783Z,4.60
2023-03-06T15:59:22.850Z,4.10
2023-03-06T16:01:54.364Z,5.00
2023-03-06T16:04:22.153Z,6.30
2023-03-06T16:06:49.822Z,4.10
2023-03-06T16:09:17.347Z,4.80
2023-03-06T16:11:46.847Z,5.00
2023-03-06T16:14:19.625Z,6.30
2023-03-06T16:16:47.212Z,6.20
2023-03-06T16:19:25.286Z,6.60
2023-03-06T16:21:54.094Z,4.50
2023-03-06T16:24:21.346Z,5.90
2023-03-06T16:26:52.062Z,3.50
2023-03-06T16:29:22.080Z,4.50
2023-03-06T16:31:49.539Z,4.70
2023-03-06T16:34:21.294Z,6.80
2023-03-06T16:36:49.705Z,5.00
2023-03-06T16:39:18.472Z,6.70
2023-03-06T16:41:48.987Z,6.30
2023-03-06T16:44:16.241Z,4.80
2023-03-06T16:46:45.430Z,5.90
2023-03-06T16:49:17.140Z,8.00
2023-03-06T16:51:44.859Z,8.00
2023-03-06T16:54:12.208Z,7.00
2023-03-06T16:56:39.353Z,8.20
2023-03-06T16:59:11.406Z,9.20
2023-03-06T17:01:39.935Z,12.50
2023-03-06T17:04:07.650Z,11.30
2023-03-06T17:06:38.120Z,11.40
2023-03-06T17:09:05.656Z,15.40
2023-03-06T17:11:32.900Z,17.30
2023-03-06T17:14:01.694Z,10.70
2023-03-06T17:16:29.147Z,14.10
2023-03-06T17:18:57.939Z,10.60
2023-03-06T17:21:26.524Z,13.70
2023-03-06T17:23:54.181Z,9.20
2023-03-06T17:26:25.682Z,8.60
2023-03-06T17:28:53.905Z,10.90
2023-03-06T17:31:22.782Z,11.20
2023-03-06T17:33:51.174Z,18.70
2023-03-06T17:36:18.838Z,18.20
2023-03-06T17:38:46.758Z,13.90
2023-03-06T17:41:13.990Z,10.10
2023-03-06T17:43:41.103Z,13.30
2023-03-06T17:46:10.170Z,8.40
2023-03-06T17:48:37.654Z,7.10
2023-03-06T17:51:06.946Z,11.00
2023-03-06T17:53:34.416Z,15.00
2023-03-06T17:56:11.072Z,14.60
2023-03-06T17:58:39.479Z,14.80
2023-03-06T18:01:11.342Z,9.70
2023-03-06T18:03:38.878Z,9.20
2023-03-06T18:06:08.996Z,12.30
2023-03-06T18:08:43.525Z,15.60
2023-03-06T18:11:10.984Z,12.80
2023-03-06T18:13:39.763Z,12.70
2023-03-06T18:16:08.952Z,10.00
2023-03-06T18:18:37.251Z,11.60
2023-03-06T18:21:09.204Z,8.70
2023-03-06T18:23:40.458Z,10.70
2023-03-06T18:26:12.103Z,6.70
2023-03-06T18:28:43.816Z,12.50
2023-03-06T18:31:18.307Z,8.90
2023-03-06T18:33:50.749Z,11.60
2023-03-06T18:36:18.012Z,14.40
2023-03-06T18:38:45.670Z,13.90
2023-03-06T18:41:13.152Z,15.80
2023-03-06T18:43:43.857Z,15.60
2023-03-06T18:46:11.100Z,13.40
2023-03-06T18:48:38.256Z,9.10
2023-03-06T18:51:08.897Z,7.70
2023-03-06T18:53:39.825Z,16.70
2023-03-06T18:56:08.250Z,18.70
2023-03-06T18:58:36.697Z,10.70
2023-03-06T19:01:08.069Z,11.80
2023-03-06T19:03:37.975Z,16.40
2023-03-06T19:06:07.880Z,11.50
2023-03-06T19:08:35.832Z,8.80
2023-03-06T19:11:05.864Z,16.30
2023-03-06T19:13:33.615Z,14.60
2023-03-06T19:16:01.332Z,14.50
2023-03-06T19:18:34.064Z,10.60
2023-03-06T19:21:13.704Z,16.50
2023-03-06T19:23:41.273Z,12.90
2023-03-06T19:26:08.615Z,14.20
2023-03-06T19:28:37.104Z,11.40
2023-03-06T19:31:12.752Z,14.60
2023-03-06T19:33:41.341Z,8.90
2023-03-06T19:36:10.081Z,16.90
2023-03-06T19:38:38.603Z,11.10
2023-03-06T19:41:11.233Z,13.80
2023-03-06T19:43:40.496Z,9.50
2023-03-06T19:46:14.147Z,10.70
2023-03-06T19:48:42.058Z,13.20
2023-03-06T19:51:10.028Z,15.30
2023-03-06T19:53:39.625Z,13.30
2023-03-06T19:56:09.128Z,11.00
2023-03-06T19:58:36.799Z,13.30
2023-03-06T20:01:09.719Z,14.20
2023-03-06T20:03:36.923Z,13.70
2023-03-06T20:06:08.702Z,13.80
2023-03-06T20:08:43.000Z,13.30
2023-03-06T20:11:20.799Z,10.30
2023-03-06T20:13:48.262Z,11.60
2023-03-06T20:16:16.547Z,9.10
2023-03-06T20:18:46.603Z,12.30
2023-03-06T20:21:14.206Z,13.60
2023-03-06T20:23:41.583Z,13.20
2023-03-06T20:26:11.389Z,7.40
2023-03-06T20:28:39.957Z,11.60
2023-03-06T20:31:08.199Z,11.20
2023-03-06T20:33:36.293Z,12.90
2023-03-06T20:36:04.353Z,14.10
2023-03-06T20:38:36.015Z,13.60
2023-03-06T20:41:03.519Z,12.10
2023-03-06T20:43:31.259Z,10.20
2023-03-06T20:46:02.669Z,15.40
2023-03-06T20:48:29.840Z,11.70
2023-03-06T20:50:59.648Z,16.10
2023-03-06T20:53:26.814Z,13.80
2023-03-06T20:55:55.747Z,20.10
2023-03-06T20:58:25.401Z,14.10
2023-03-06T21:00:57.672Z,12.40
2023-03-06T21:03:44.583Z,13.30
2023-03-06T21:06:12.147Z,10.10
2023-03-06T21:08:39.211Z,11.90
2023-03-06T21:11:06.342Z,8.50
2023-03-06T21:13:34.251Z,13.00
2023-03-06T21:16:10.015Z,11.40
2023-03-06T21:18:37.312Z,13.70
2023-03-06T21:21:08.458Z,14.10
2023-03-06T21:23:36.542Z,17.70
2023-03-06T21:26:06.154Z,11.40
2023-03-06T21:28:34.048Z,20.00
2023-03-06T21:31:01.494Z,17.90
2023-03-06T21:33:29.430Z,12.70
2023-03-06T21:35:56.639Z,12.90
2023-03-06T21:38:25.986Z,14.00
2023-03-06T21:40:55.345Z,19.50
2023-03-06T21:43:22.757Z,17.20
2023-03-06T21:45:52.262Z,11.90
2023-03-06T21:48:19.331Z,13.40
2023-03-06T21:50:46.435Z,13.90
2023-03-06T21:53:14.820Z,14.10
2023-03-06T21:55:41.966Z,13.20
2023-03-06T21:58:10.548Z,11.10
2023-03-06T22:00:38.015Z,11.80
2023-03-06T22:03:06.079Z,15.20
2023-03-06T22:05:33.634Z,12.30
2023-03-06T22:08:01.627Z,13.40
2023-03-06T22:10:28.955Z,14.50
2023-03-06T22:12:57.334Z,11.70
2023-03-06T22:15:29.075Z,6.80
2023-03-06T22:17:58.495Z,13.90
2023-03-06T22:20:25.820Z,12.00
2023-03-06T22:22:56.787Z,11.60
2023-03-06T22:25:24.038Z,16.80
2023-03-06T22:27:51.123Z,14.20
2023-03-06T22:30:18.538Z,14.70
2023-03-06T22:32:45.925Z,14.80
2023-03-06T22:35:14.371Z,12.20
2023-03-06T22:37:43.771Z,16.20
2023-03-06T22:40:12.560Z,16.70
2023-03-06T22:42:42.081Z,9.90
2023-03-06T22:45:12.287Z,9.60
2023-03-06T22:47:39.743Z,15.00
2023-03-06T22:50:07.847Z,11.30
2023-03-06T22:52:35.063Z,12.10
2023-03-06T22:55:07.544Z,11.70
2023-03-06T22:57:34.969Z,17.00
2023-03-06T23:00:02.286Z,13.50
2023-03-06T23:02:34.727Z,16.70
2023-03-06T23:05:01.571Z,22.30
2023-03-06T23:07:34.171Z,24.20
2023-03-06T23:10:01.315Z,23.80
2023-03-06T23:12:47.696Z,9.50
2023-03-06T23:15:34.942Z,14.00
2023-03-06T23:18:21.933Z,8.50
2023-03-06T23:21:09.472Z,10.80
2023-03-06T23:23:57.021Z,10.60
2023-03-06T23:26:25.569Z,9.50
2023-03-06T23:28:52.928Z,11.30
2023-03-06T23:31:23.198Z,13.50
2023-03-06T23:33:50.604Z,8.90
2023-03-06T23:36:19.445Z,9.70
2023-03-06T23:38:46.671Z,10.70
2023-03-06T23:41:15.616Z,8.80
2023-03-06T23:43:43.808Z,11.10
2023-03-06T23:46:10.840Z,6.70
2023-03-06T23:48:39.135Z,10.10
2023-03-06T23:51:12.153Z,10.90
2023-03-06T23:53:40.881Z,6.70
2023-03-06T23:56:09.281Z,12.00
2023-03-06T23:58:36.658Z,11.60
